John Paul II International Airport Krakow-Balice Airport Krakow PL
ICAO: EPKK
IATA: KRK
Category: Large
Scheduled Services: Yes

Elevation: 791 ft
TransAlt. 6500 ft.

Airport Communications:
KRAKOW APP:121.075
ATIS:126.125
KRAKOW DIRECTOR:123.8
KRAKOW DELIVERY:118.1
KRAKOW TWR:123.25

EPKK Zoom In..

If you have problems with the map follow the link
https://www.worldairports.se/pages/airport.php?
ICAO=EPKK

Runways:

(A) RW 07 length 8366 ft width 197 ft
---- / hdg 74

(B) RW 25 length 8366 ft width 197 ft
ILS 110.30 / hdg 254

Location; EPKK
Day. 14 / Time. 09.00 Zulu
* QNH: 1013
* Temperature: 05° c. 41°f.
* Wind from: 050° Speed 04 kn.
Dewpoint: 02° c.
Visibility: 10 km or more.
Clouds: Few 1100 ft.
Clouds: Scattered 3300 ft.

EPKK 140900Z 05004KT 030V100 9999 FEW011 SCT033 05/02 Q1013


Wind From 050°
Speed 04 kn.

 
 
jpsmedia worldairports.se 2019   terms of use